sensor_id;sensor_type;location;lat;lon;timestamp;pressure;altitude;pressure_sealevel;temperature;humidity
63535;BME280;55128;50.230;18.944;2022-10-16T00:00:42;98641.66;;;13.27;74.55
63535;BME280;55128;50.230;18.944;2022-10-16T00:05:43;98654.91;;;13.28;74.56
63535;BME280;55128;50.230;18.944;2022-10-16T00:10:44;98653.19;;;13.27;74.82
63535;BME280;55128;50.230;18.944;2022-10-16T00:15:45;98655.94;;;13.26;74.73
63535;BME280;55128;50.230;18.944;2022-10-16T00:20:46;98647.09;;;13.25;74.84
63535;BME280;55128;50.230;18.944;2022-10-16T00:26:02;98650.75;;;13.22;75.17
63535;BME280;55128;50.230;18.944;2022-10-16T00:31:08;98655.41;;;13.19;74.82
63535;BME280;55128;50.230;18.944;2022-10-16T00:36:13;98655.84;;;13.11;74.82
63535;BME280;55128;50.230;18.944;2022-10-16T00:41:16;98656.19;;;13.05;75.21
63535;BME280;55128;50.230;18.944;2022-10-16T00:51:31;98655.34;;;13.05;75.61
63535;BME280;55128;50.230;18.944;2022-10-16T00:56:33;98658.09;;;13.03;75.28
63535;BME280;55128;50.230;18.944;2022-10-16T01:01:34;98657.41;;;12.99;75.07
63535;BME280;55128;50.230;18.944;2022-10-16T01:17:27;98661.34;;;12.92;75.31
63535;BME280;55128;50.230;18.944;2022-10-16T01:28:10;98659.72;;;12.90;75.88
63535;BME280;55128;50.230;18.944;2022-10-16T01:33:23;98663.66;;;12.82;75.79
63535;BME280;55128;50.230;18.944;2022-10-16T01:38:33;98661.31;;;12.76;75.43
63535;BME280;55128;50.230;18.944;2022-10-16T01:44:28;98660.72;;;12.71;75.45
63535;BME280;55128;50.230;18.944;2022-10-16T01:49:03;98665.75;;;12.60;75.64
63535;BME280;55128;50.230;18.944;2022-10-16T01:54:07;98656.38;;;12.53;76.15
63535;BME280;55128;50.230;18.944;2022-10-16T01:59:15;98669.31;;;12.43;76.22
63535;BME280;55128;50.230;18.944;2022-10-16T02:04:24;98679.41;;;12.36;76.38
63535;BME280;55128;50.230;18.944;2022-10-16T02:09:29;98683.66;;;12.23;76.18
63535;BME280;55128;50.230;18.944;2022-10-16T02:14:31;98690.22;;;12.16;76.42
63535;BME280;55128;50.230;18.944;2022-10-16T02:19:31;98696.91;;;12.07;76.33
63535;BME280;55128;50.230;18.944;2022-10-16T02:24:39;98698.38;;;11.95;76.80
63535;BME280;55128;50.230;18.944;2022-10-16T02:29:46;98702.28;;;11.88;76.48
63535;BME280;55128;50.230;18.944;2022-10-16T02:34:51;98695.19;;;11.70;76.95
63535;BME280;55128;50.230;18.944;2022-10-16T02:39:52;98699.22;;;11.59;77.03
63535;BME280;55128;50.230;18.944;2022-10-16T02:44:54;98690.06;;;11.47;76.84
63535;BME280;55128;50.230;18.944;2022-10-16T02:49:54;98691.34;;;11.39;78.33
63535;BME280;55128;50.230;18.944;2022-10-16T02:54:55;98688.16;;;11.32;78.50
63535;BME280;55128;50.230;18.944;2022-10-16T02:59:55;98699.00;;;11.27;77.99
63535;BME280;55128;50.230;18.944;2022-10-16T03:04:56;98703.81;;;11.19;77.48
63535;BME280;55128;50.230;18.944;2022-10-16T03:09:57;98701.47;;;11.13;77.93
63535;BME280;55128;50.230;18.944;2022-10-16T03:15:00;98710.34;;;11.12;78.50
63535;BME280;55128;50.230;18.944;2022-10-16T03:20:01;98708.19;;;11.20;79.12
63535;BME280;55128;50.230;18.944;2022-10-16T03:25:01;98710.22;;;11.15;78.42
63535;BME280;55128;50.230;18.944;2022-10-16T03:30:02;98703.47;;;11.08;79.24
63535;BME280;55128;50.230;18.944;2022-10-16T03:35:03;98717.97;;;11.01;78.89
63535;BME280;55128;50.230;18.944;2022-10-16T03:40:04;98720.91;;;10.95;79.65
63535;BME280;55128;50.230;18.944;2022-10-16T03:45:05;98726.69;;;10.84;79.24
63535;BME280;55128;50.230;18.944;2022-10-16T03:50:07;98733.94;;;10.80;79.05
63535;BME280;55128;50.230;18.944;2022-10-16T03:55:07;98734.66;;;10.84;79.42
63535;BME280;55128;50.230;18.944;2022-10-16T04:00:09;98727.41;;;10.87;79.08
63535;BME280;55128;50.230;18.944;2022-10-16T04:05:10;98721.81;;;10.94;79.37
63535;BME280;55128;50.230;18.944;2022-10-16T04:10:10;98734.63;;;11.04;79.51
63535;BME280;55128;50.230;18.944;2022-10-16T04:15:11;98731.59;;;11.12;79.38
63535;BME280;55128;50.230;18.944;2022-10-16T04:20:12;98738.28;;;11.21;79.81
63535;BME280;55128;50.230;18.944;2022-10-16T04:25:12;98737.16;;;11.26;78.85
63535;BME280;55128;50.230;18.944;2022-10-16T04:30:13;98730.31;;;11.21;79.84
63535;BME280;55128;50.230;18.944;2022-10-16T04:35:14;98725.28;;;11.15;79.75
63535;BME280;55128;50.230;18.944;2022-10-16T04:40:14;98727.94;;;11.15;80.14
63535;BME280;55128;50.230;18.944;2022-10-16T04:45:15;98730.81;;;11.10;79.55
63535;BME280;55128;50.230;18.944;2022-10-16T04:50:16;98742.59;;;11.04;79.18
63535;BME280;55128;50.230;18.944;2022-10-16T04:55:16;98746.25;;;11.02;79.24
63535;BME280;55128;50.230;18.944;2022-10-16T05:00:17;98747.13;;;11.02;79.52
63535;BME280;55128;50.230;18.944;2022-10-16T05:05:18;98742.72;;;11.01;79.57
63535;BME280;55128;50.230;18.944;2022-10-16T05:10:21;98752.44;;;11.02;80.13
63535;BME280;55128;50.230;18.944;2022-10-16T05:15:22;98770.16;;;11.02;79.50
63535;BME280;55128;50.230;18.944;2022-10-16T05:20:25;98777.97;;;11.05;79.30
63535;BME280;55128;50.230;18.944;2022-10-16T05:25:25;98772.53;;;11.08;79.35
63535;BME280;55128;50.230;18.944;2022-10-16T05:30:26;98775.44;;;11.22;79.06
63535;BME280;55128;50.230;18.944;2022-10-16T05:35:27;98783.03;;;11.30;79.20
63535;BME280;55128;50.230;18.944;2022-10-16T05:40:27;98788.38;;;11.30;79.09
63535;BME280;55128;50.230;18.944;2022-10-16T05:45:28;98792.91;;;11.47;79.08
63535;BME280;55128;50.230;18.944;2022-10-16T05:50:28;98797.97;;;11.71;78.72
63535;BME280;55128;50.230;18.944;2022-10-16T05:55:29;98802.41;;;11.89;79.07
63535;BME280;55128;50.230;18.944;2022-10-16T06:00:30;98801.56;;;12.25;78.57
63535;BME280;55128;50.230;18.944;2022-10-16T06:05:30;98814.81;;;12.79;78.36
63535;BME280;55128;50.230;18.944;2022-10-16T06:10:31;98827.91;;;13.17;77.31
63535;BME280;55128;50.230;18.944;2022-10-16T06:15:31;98830.69;;;14.74;76.37
63535;BME280;55128;50.230;18.944;2022-10-16T06:20:32;98837.97;;;14.87;72.81
63535;BME280;55128;50.230;18.944;2022-10-16T06:25:32;98840.78;;;15.14;71.57
63535;BME280;55128;50.230;18.944;2022-10-16T06:30:33;98852.53;;;15.40;68.85
63535;BME280;55128;50.230;18.944;2022-10-16T06:35:34;98863.09;;;16.68;69.05
63535;BME280;55128;50.230;18.944;2022-10-16T06:40:34;98864.81;;;18.23;65.95
63535;BME280;55128;50.230;18.944;2022-10-16T06:45:35;98870.56;;;20.49;61.21
63535;BME280;55128;50.230;18.944;2022-10-16T06:50:35;98874.13;;;23.54;59.22
63535;BME280;55128;50.230;18.944;2022-10-16T06:55:36;98878.84;;;25.09;49.49
63535;BME280;55128;50.230;18.944;2022-10-16T07:00:37;98879.59;;;27.40;43.38
63535;BME280;55128;50.230;18.944;2022-10-16T07:05:41;98891.25;;;29.61;38.34
63535;BME280;55128;50.230;18.944;2022-10-16T07:10:42;98898.94;;;31.13;32.21
63535;BME280;55128;50.230;18.944;2022-10-16T07:15:42;98904.84;;;32.58;29.21
63535;BME280;55128;50.230;18.944;2022-10-16T07:20:43;98906.34;;;32.61;28.77
63535;BME280;55128;50.230;18.944;2022-10-16T07:25:44;98908.03;;;30.92;30.02
63535;BME280;55128;50.230;18.944;2022-10-16T07:30:45;98903.06;;;27.99;32.83
63535;BME280;55128;50.230;18.944;2022-10-16T07:35:52;98903.53;;;28.02;32.52
63535;BME280;55128;50.230;18.944;2022-10-16T07:41:05;98915.16;;;27.88;31.56
63535;BME280;55128;50.230;18.944;2022-10-16T07:46:11;98918.94;;;26.37;33.89
63535;BME280;55128;50.230;18.944;2022-10-16T07:51:13;98911.28;;;25.28;36.87
63535;BME280;55128;50.230;18.944;2022-10-16T07:56:15;98912.19;;;24.10;39.04
63535;BME280;55128;50.230;18.944;2022-10-16T08:01:16;98918.66;;;24.09;39.43
63535;BME280;55128;50.230;18.944;2022-10-16T08:06:19;98918.22;;;23.37;40.78
63535;BME280;55128;50.230;18.944;2022-10-16T08:11:20;98917.69;;;22.94;41.86
63535;BME280;55128;50.230;18.944;2022-10-16T08:16:21;98914.81;;;22.86;42.93
63535;BME280;55128;50.230;18.944;2022-10-16T08:21:22;98910.66;;;23.50;41.54
63535;BME280;55128;50.230;18.944;2022-10-16T08:26:23;98912.00;;;25.30;39.31
63535;BME280;55128;50.230;18.944;2022-10-16T08:31:24;98920.16;;;27.68;34.61
63535;BME280;55128;50.230;18.944;2022-10-16T08:36:26;98932.09;;;27.01;34.62
63535;BME280;55128;50.230;18.944;2022-10-16T08:51:58;98944.66;;;26.09;35.61
63535;BME280;55128;50.230;18.944;2022-10-16T08:57:13;98944.03;;;25.63;37.11
63535;BME280;55128;50.230;18.944;2022-10-16T09:13:09;98929.66;;;24.35;40.06
63535;BME280;55128;50.230;18.944;2022-10-16T09:23:25;98946.28;;;28.26;37.46
63535;BME280;55128;50.230;18.944;2022-10-16T09:28:26;98970.34;;;32.89;28.91
63535;BME280;55128;50.230;18.944;2022-10-16T09:33:34;98966.00;;;30.74;28.47
63535;BME280;55128;50.230;18.944;2022-10-16T09:38:36;98968.50;;;30.24;30.13
63535;BME280;55128;50.230;18.944;2022-10-16T09:43:40;98975.22;;;30.37;29.43
63535;BME280;55128;50.230;18.944;2022-10-16T09:48:48;98963.47;;;27.87;32.92
63535;BME280;55128;50.230;18.944;2022-10-16T09:53:55;98969.75;;;27.22;33.32
63535;BME280;55128;50.230;18.944;2022-10-16T09:59:01;98965.22;;;26.03;36.00
63535;BME280;55128;50.230;18.944;2022-10-16T10:04:03;98969.31;;;25.37;37.77
63535;BME280;55128;50.230;18.944;2022-10-16T10:19:26;98964.06;;;24.06;40.30
63535;BME280;55128;50.230;18.944;2022-10-16T10:24:27;98971.53;;;23.85;41.76
63535;BME280;55128;50.230;18.944;2022-10-16T10:30:06;98971.09;;;23.80;42.13
63535;BME280;55128;50.230;18.944;2022-10-16T10:35:22;98971.31;;;23.29;43.55
63535;BME280;55128;50.230;18.944;2022-10-16T10:45:52;98964.44;;;23.25;44.25
63535;BME280;55128;50.230;18.944;2022-10-16T10:51:08;98964.69;;;22.83;44.69
63535;BME280;55128;50.230;18.944;2022-10-16T11:07:12;98941.81;;;23.07;46.30
63535;BME280;55128;50.230;18.944;2022-10-16T11:12:29;98943.50;;;23.08;46.20
63535;BME280;55128;50.230;18.944;2022-10-16T11:17:39;98940.19;;;22.75;45.83
63535;BME280;55128;50.230;18.944;2022-10-16T11:22:48;98961.66;;;22.77;46.20
63535;BME280;55128;50.230;18.944;2022-10-16T11:38:32;98957.59;;;23.21;46.11
63535;BME280;55128;50.230;18.944;2022-10-16T11:43:41;98951.47;;;23.00;45.68
63535;BME280;55128;50.230;18.944;2022-10-16T11:48:49;98962.84;;;22.94;46.93
63535;BME280;55128;50.230;18.944;2022-10-16T11:53:57;98949.88;;;22.97;46.97
63535;BME280;55128;50.230;18.944;2022-10-16T11:59:02;98962.13;;;22.91;46.82
63535;BME280;55128;50.230;18.944;2022-10-16T12:04:25;98957.06;;;22.58;47.95
63535;BME280;55128;50.230;18.944;2022-10-16T12:09:30;98965.84;;;22.81;47.69
63535;BME280;55128;50.230;18.944;2022-10-16T12:14:38;98965.00;;;23.00;47.61
63535;BME280;55128;50.230;18.944;2022-10-16T12:19:40;98978.25;;;23.03;47.43
63535;BME280;55128;50.230;18.944;2022-10-16T12:24:42;98982.44;;;23.17;47.55
63535;BME280;55128;50.230;18.944;2022-10-16T12:29:44;98982.97;;;23.59;46.68
63535;BME280;55128;50.230;18.944;2022-10-16T12:34:45;98990.97;;;23.12;47.02
63535;BME280;55128;50.230;18.944;2022-10-16T12:39:48;98985.50;;;22.83;47.47
63535;BME280;55128;50.230;18.944;2022-10-16T12:44:49;98990.59;;;22.66;48.84
63535;BME280;55128;50.230;18.944;2022-10-16T12:49:52;98985.56;;;22.52;49.29
63535;BME280;55128;50.230;18.944;2022-10-16T12:54:56;98992.31;;;22.27;49.92
63535;BME280;55128;50.230;18.944;2022-10-16T13:06:08;99004.59;;;22.10;51.11
63535;BME280;55128;50.230;18.944;2022-10-16T13:11:24;98998.81;;;22.24;51.14
63535;BME280;55128;50.230;18.944;2022-10-16T13:27:36;99012.34;;;22.03;51.30
63535;BME280;55128;50.230;18.944;2022-10-16T13:32:44;99006.06;;;22.24;50.65
63535;BME280;55128;50.230;18.944;2022-10-16T13:37:46;99003.16;;;22.06;51.18
63535;BME280;55128;50.230;18.944;2022-10-16T13:42:47;99007.50;;;21.97;50.69
63535;BME280;55128;50.230;18.944;2022-10-16T13:47:47;98989.75;;;22.04;49.94
63535;BME280;55128;50.230;18.944;2022-10-16T13:52:48;98989.63;;;22.06;49.69
63535;BME280;55128;50.230;18.944;2022-10-16T13:57:49;98978.97;;;21.62;50.08
63535;BME280;55128;50.230;18.944;2022-10-16T14:02:58;98988.25;;;21.16;50.75
63535;BME280;55128;50.230;18.944;2022-10-16T14:08:01;98997.16;;;21.28;51.15
63535;BME280;55128;50.230;18.944;2022-10-16T14:13:04;99002.44;;;21.29;51.10
63535;BME280;55128;50.230;18.944;2022-10-16T14:18:06;99018.44;;;21.21;51.47
63535;BME280;55128;50.230;18.944;2022-10-16T14:23:29;99023.50;;;21.14;52.03
63535;BME280;55128;50.230;18.944;2022-10-16T14:28:31;99024.69;;;21.22;51.73
63535;BME280;55128;50.230;18.944;2022-10-16T14:33:33;99033.41;;;21.25;51.30
63535;BME280;55128;50.230;18.944;2022-10-16T14:38:34;99037.06;;;21.24;52.03
63535;BME280;55128;50.230;18.944;2022-10-16T14:43:40;99030.75;;;21.14;51.95
63535;BME280;55128;50.230;18.944;2022-10-16T14:48:49;99028.84;;;20.93;52.69
63535;BME280;55128;50.230;18.944;2022-10-16T14:53:50;99028.34;;;20.88;52.63
63535;BME280;55128;50.230;18.944;2022-10-16T14:58:52;99029.38;;;20.76;53.10
63535;BME280;55128;50.230;18.944;2022-10-16T15:03:53;99037.94;;;20.70;53.62
63535;BME280;55128;50.230;18.944;2022-10-16T15:08:55;99040.03;;;20.66;53.70
63535;BME280;55128;50.230;18.944;2022-10-16T15:13:55;99035.00;;;20.50;54.17
63535;BME280;55128;50.230;18.944;2022-10-16T15:18:56;99036.47;;;20.32;55.07
63535;BME280;55128;50.230;18.944;2022-10-16T15:23:58;99036.06;;;20.14;55.67
63535;BME280;55128;50.230;18.944;2022-10-16T15:28:59;99034.56;;;19.87;56.92
63535;BME280;55128;50.230;18.944;2022-10-16T15:34:00;99054.66;;;19.59;56.95
63535;BME280;55128;50.230;18.944;2022-10-16T15:39:16;99060.31;;;19.32;57.88
63535;BME280;55128;50.230;18.944;2022-10-16T15:44:18;99062.69;;;18.99;58.97
63535;BME280;55128;50.230;18.944;2022-10-16T15:49:19;99064.91;;;18.69;60.19
63535;BME280;55128;50.230;18.944;2022-10-16T15:54:19;99071.53;;;18.39;61.46
63535;BME280;55128;50.230;18.944;2022-10-16T15:59:22;99085.75;;;18.15;60.84
63535;BME280;55128;50.230;18.944;2022-10-16T16:04:23;99084.44;;;17.95;62.17
63535;BME280;55128;50.230;18.944;2022-10-16T16:09:24;99082.13;;;17.76;61.92
63535;BME280;55128;50.230;18.944;2022-10-16T16:14:24;99092.16;;;17.60;62.84
63535;BME280;55128;50.230;18.944;2022-10-16T16:19:26;99084.38;;;17.42;64.71
63535;BME280;55128;50.230;18.944;2022-10-16T16:24:26;99092.59;;;17.26;64.32
63535;BME280;55128;50.230;18.944;2022-10-16T16:29:27;99101.75;;;17.09;64.59
63535;BME280;55128;50.230;18.944;2022-10-16T16:34:28;99099.38;;;16.90;64.89
63535;BME280;55128;50.230;18.944;2022-10-16T16:39:29;99112.16;;;16.73;64.68
63535;BME280;55128;50.230;18.944;2022-10-16T16:44:29;99127.47;;;16.56;66.77
63535;BME280;55128;50.230;18.944;2022-10-16T16:49:30;99136.66;;;16.38;66.88
63535;BME280;55128;50.230;18.944;2022-10-16T16:54:31;99135.94;;;16.20;68.83
63535;BME280;55128;50.230;18.944;2022-10-16T16:59:31;99142.69;;;15.97;69.95
63535;BME280;55128;50.230;18.944;2022-10-16T17:04:35;99143.31;;;15.86;68.95
63535;BME280;55128;50.230;18.944;2022-10-16T17:09:35;99150.69;;;15.66;68.82
63535;BME280;55128;50.230;18.944;2022-10-16T17:14:36;99158.19;;;15.60;70.31
63535;BME280;55128;50.230;18.944;2022-10-16T17:19:37;99171.91;;;15.39;70.96
63535;BME280;55128;50.230;18.944;2022-10-16T17:24:37;99171.03;;;15.23;71.78
63535;BME280;55128;50.230;18.944;2022-10-16T17:29:38;99176.28;;;15.08;72.17
63535;BME280;55128;50.230;18.944;2022-10-16T17:34:39;99190.16;;;14.99;71.69
63535;BME280;55128;50.230;18.944;2022-10-16T17:39:39;99195.50;;;14.83;71.27
63535;BME280;55128;50.230;18.944;2022-10-16T17:44:40;99204.63;;;14.79;70.85
63535;BME280;55128;50.230;18.944;2022-10-16T17:49:40;99205.81;;;14.73;72.67
63535;BME280;55128;50.230;18.944;2022-10-16T17:54:41;99213.28;;;14.67;73.43
63535;BME280;55128;50.230;18.944;2022-10-16T17:59:43;99221.38;;;14.65;73.54
63535;BME280;55128;50.230;18.944;2022-10-16T18:04:44;99223.53;;;14.58;73.01
63535;BME280;55128;50.230;18.944;2022-10-16T18:09:44;99226.91;;;14.62;73.82
63535;BME280;55128;50.230;18.944;2022-10-16T18:14:45;99223.97;;;14.49;73.09
63535;BME280;55128;50.230;18.944;2022-10-16T18:19:45;99239.78;;;14.36;74.58
63535;BME280;55128;50.230;18.944;2022-10-16T18:24:46;99235.44;;;14.16;76.59
63535;BME280;55128;50.230;18.944;2022-10-16T18:29:46;99227.19;;;14.04;77.07
63535;BME280;55128;50.230;18.944;2022-10-16T18:34:47;99233.41;;;14.04;75.26
63535;BME280;55128;50.230;18.944;2022-10-16T18:39:48;99237.66;;;13.91;76.08
63535;BME280;55128;50.230;18.944;2022-10-16T18:44:49;99256.13;;;13.76;77.01
63535;BME280;55128;50.230;18.944;2022-10-16T18:49:50;99260.88;;;13.70;77.42
63535;BME280;55128;50.230;18.944;2022-10-16T18:54:54;99260.06;;;13.50;77.03
63535;BME280;55128;50.230;18.944;2022-10-16T18:59:56;99264.81;;;13.44;77.53
63535;BME280;55128;50.230;18.944;2022-10-16T19:04:56;99275.28;;;13.48;76.30
63535;BME280;55128;50.230;18.944;2022-10-16T19:09:57;99278.25;;;13.42;75.98
63535;BME280;55128;50.230;18.944;2022-10-16T19:14:58;99281.69;;;13.44;76.84
63535;BME280;55128;50.230;18.944;2022-10-16T19:19:59;99291.31;;;13.28;77.30
63535;BME280;55128;50.230;18.944;2022-10-16T19:24:59;99292.66;;;13.17;76.90
63535;BME280;55128;50.230;18.944;2022-10-16T19:30:00;99300.22;;;13.08;77.12
63535;BME280;55128;50.230;18.944;2022-10-16T19:35:01;99302.31;;;13.01;76.58
63535;BME280;55128;50.230;18.944;2022-10-16T19:40:03;99306.19;;;12.94;76.27
63535;BME280;55128;50.230;18.944;2022-10-16T19:45:04;99313.50;;;12.89;76.24
63535;BME280;55128;50.230;18.944;2022-10-16T19:50:05;99318.44;;;12.77;76.97
63535;BME280;55128;50.230;18.944;2022-10-16T19:55:06;99325.63;;;12.75;76.35
63535;BME280;55128;50.230;18.944;2022-10-16T20:00:07;99306.59;;;12.64;76.64
63535;BME280;55128;50.230;18.944;2022-10-16T20:05:08;99322.69;;;12.61;76.54
63535;BME280;55128;50.230;18.944;2022-10-16T20:10:09;99330.03;;;12.56;77.20
63535;BME280;55128;50.230;18.944;2022-10-16T20:15:09;99327.56;;;12.51;77.28
63535;BME280;55128;50.230;18.944;2022-10-16T20:20:10;99333.09;;;12.47;77.98
63535;BME280;55128;50.230;18.944;2022-10-16T20:25:11;99342.00;;;12.45;77.40
63535;BME280;55128;50.230;18.944;2022-10-16T20:30:11;99347.66;;;12.38;76.45
63535;BME280;55128;50.230;18.944;2022-10-16T20:35:12;99355.56;;;12.39;77.82
63535;BME280;55128;50.230;18.944;2022-10-16T20:40:13;99357.66;;;12.31;77.79
63535;BME280;55128;50.230;18.944;2022-10-16T20:45:14;99356.22;;;12.24;77.90
63535;BME280;55128;50.230;18.944;2022-10-16T20:50:14;99361.59;;;12.22;78.19
63535;BME280;55128;50.230;18.944;2022-10-16T20:55:15;99362.44;;;12.23;78.19
63535;BME280;55128;50.230;18.944;2022-10-16T21:00:17;99353.97;;;12.13;77.03
63535;BME280;55128;50.230;18.944;2022-10-16T21:05:18;99372.91;;;12.05;77.36
63535;BME280;55128;50.230;18.944;2022-10-16T21:10:19;99376.50;;;12.04;77.23
63535;BME280;55128;50.230;18.944;2022-10-16T21:15:21;99384.78;;;11.97;76.98
63535;BME280;55128;50.230;18.944;2022-10-16T21:20:21;99388.72;;;11.86;77.52
63535;BME280;55128;50.230;18.944;2022-10-16T21:25:22;99403.78;;;11.86;77.22
63535;BME280;55128;50.230;18.944;2022-10-16T21:30:22;99398.91;;;11.75;77.19
63535;BME280;55128;50.230;18.944;2022-10-16T21:35:23;99412.41;;;11.69;77.60
63535;BME280;55128;50.230;18.944;2022-10-16T21:40:25;99420.47;;;11.67;77.60
63535;BME280;55128;50.230;18.944;2022-10-16T21:45:25;99432.31;;;11.59;77.58
63535;BME280;55128;50.230;18.944;2022-10-16T21:50:26;99435.25;;;11.51;80.43
63535;BME280;55128;50.230;18.944;2022-10-16T21:55:26;99427.34;;;11.50;80.16
63535;BME280;55128;50.230;18.944;2022-10-16T22:00:27;99439.63;;;11.52;79.00
63535;BME280;55128;50.230;18.944;2022-10-16T22:05:28;99430.38;;;11.39;77.77
63535;BME280;55128;50.230;18.944;2022-10-16T22:10:28;99431.47;;;11.33;77.93
63535;BME280;55128;50.230;18.944;2022-10-16T22:15:29;99424.59;;;11.27;77.96
63535;BME280;55128;50.230;18.944;2022-10-16T22:20:29;99430.72;;;11.29;78.69
63535;BME280;55128;50.230;18.944;2022-10-16T22:25:32;99422.16;;;11.21;78.38
63535;BME280;55128;50.230;18.944;2022-10-16T22:30:37;99430.94;;;11.23;78.87
63535;BME280;55128;50.230;18.944;2022-10-16T22:35:39;99442.69;;;11.16;79.65
63535;BME280;55128;50.230;18.944;2022-10-16T22:40:40;99443.16;;;11.04;78.70
63535;BME280;55128;50.230;18.944;2022-10-16T22:45:41;99436.13;;;11.01;78.55
63535;BME280;55128;50.230;18.944;2022-10-16T22:50:42;99447.75;;;10.99;78.64
63535;BME280;55128;50.230;18.944;2022-10-16T22:55:43;99443.19;;;11.02;78.63
63535;BME280;55128;50.230;18.944;2022-10-16T23:00:44;99446.13;;;10.95;78.69
63535;BME280;55128;50.230;18.944;2022-10-16T23:05:45;99450.53;;;10.94;78.07
63535;BME280;55128;50.230;18.944;2022-10-16T23:10:46;99460.66;;;10.83;78.42
63535;BME280;55128;50.230;18.944;2022-10-16T23:15:47;99465.13;;;10.82;78.07
63535;BME280;55128;50.230;18.944;2022-10-16T23:20:47;99456.59;;;10.73;79.54
63535;BME280;55128;50.230;18.944;2022-10-16T23:25:48;99455.53;;;10.78;79.69
63535;BME280;55128;50.230;18.944;2022-10-16T23:30:48;99458.34;;;10.74;78.82
63535;BME280;55128;50.230;18.944;2022-10-16T23:35:49;99463.78;;;10.69;78.78
63535;BME280;55128;50.230;18.944;2022-10-16T23:40:50;99458.56;;;10.66;79.18
63535;BME280;55128;50.230;18.944;2022-10-16T23:45:50;99464.91;;;10.62;78.68
63535;BME280;55128;50.230;18.944;2022-10-16T23:50:51;99470.41;;;10.56;78.31
63535;BME280;55128;50.230;18.944;2022-10-16T23:55:51;99473.16;;;10.53;78.30
